Time;durP1;ratioP1;P1;durP2;ratioP2;P2;SDS_P1;SDS_P2;PMS_P1;PMS_P2;Temp;Humidity;BMP_temperature;BMP_pressure;BME280_temperature;BME280_humidity;BME280_pressure;Samples;Min_cycle;Max_cycle;Signal;HPM_P1;HPM_P2
2023/06/29 00:00:00;;;;;;;13.20;6.13;;;21.70;99.90;;;;;;4953005;28;20547;-84
2023/06/29 00:02:25;;;;;;;16.30;6.57;;;21.60;99.90;;;;;;4954634;28;20148;-84
2023/06/29 00:04:54;;;;;;;17.02;6.78;;;21.60;99.90;;;;;;4951973;28;20034;-82
2023/06/29 00:07:20;;;;;;;12.05;6.68;;;21.60;99.90;;;;;;4953373;28;20018;-83
2023/06/29 00:09:48;;;;;;;19.73;7.25;;;21.50;99.90;;;;;;4953322;28;20097;-83
2023/06/29 00:12:14;;;;;;;20.15;6.97;;;21.50;99.90;;;;;;4951119;28;20035;-82
2023/06/29 00:14:40;;;;;;;15.50;6.53;;;21.50;99.90;;;;;;4952601;28;20062;-86
2023/06/29 00:17:05;;;;;;;12.00;6.38;;;21.50;99.90;;;;;;4960632;28;20482;-85
2023/06/29 00:19:31;;;;;;;15.20;6.95;;;21.50;99.90;;;;;;4955935;28;20031;-85
2023/06/29 00:21:58;;;;;;;11.75;6.88;;;21.50;99.90;;;;;;4959195;28;20395;-82
2023/06/29 00:24:23;;;;;;;20.13;6.47;;;21.60;99.90;;;;;;4959105;28;20553;-82
2023/06/29 00:26:49;;;;;;;14.15;6.75;;;21.60;99.90;;;;;;4954519;28;20019;-82
2023/06/29 00:29:15;;;;;;;11.43;6.60;;;21.60;99.90;;;;;;4950328;28;20483;-82
2023/06/29 00:31:40;;;;;;;13.30;6.63;;;21.60;99.90;;;;;;4950185;28;20042;-81
2023/06/29 00:34:06;;;;;;;16.65;7.05;;;21.60;99.90;;;;;;4968307;28;20022;-82
2023/06/29 00:36:31;;;;;;;18.63;6.20;;;21.60;99.90;;;;;;4963406;28;20078;-82
2023/06/29 00:38:57;;;;;;;19.92;7.18;;;21.60;99.90;;;;;;4958382;28;20023;-82
2023/06/29 00:41:25;;;;;;;16.00;6.95;;;21.60;99.90;;;;;;4955343;28;20125;-81
2023/06/29 00:43:53;;;;;;;17.15;6.47;;;21.60;99.90;;;;;;4950414;28;20089;-81
2023/06/29 00:46:20;;;;;;;11.50;6.18;;;21.60;99.90;;;;;;4969897;28;20041;-82
2023/06/29 00:48:47;;;;;;;14.77;6.78;;;21.60;99.90;;;;;;4949051;28;20505;-81
2023/06/29 00:51:15;;;;;;;10.40;6.30;;;21.60;99.90;;;;;;4952891;28;20122;-86
2023/06/29 00:53:42;;;;;;;12.30;7.07;;;21.50;99.90;;;;;;4955649;28;20633;-86
2023/06/29 00:56:08;;;;;;;15.25;6.93;;;21.50;99.90;;;;;;4950306;28;20034;-82
2023/06/29 00:58:36;;;;;;;11.20;6.88;;;21.40;99.90;;;;;;4953469;28;20031;-86
2023/06/29 01:01:01;;;;;;;12.30;6.68;;;21.40;99.90;;;;;;4967863;28;20062;-86
2023/06/29 01:03:27;;;;;;;14.48;6.93;;;21.40;99.90;;;;;;4952071;28;20019;-85
2023/06/29 01:06:03;;;;;;;18.80;7.50;;;21.30;99.90;;;;;;4954978;28;20034;-85
2023/06/29 01:08:38;;;;;;;16.30;7.05;;;21.30;99.90;;;;;;4953702;28;20061;-85
2023/06/29 01:11:04;;;;;;;13.90;6.90;;;21.20;99.90;;;;;;4969524;28;20077;-85
2023/06/29 01:13:31;;;;;;;14.05;7.05;;;21.20;99.90;;;;;;4954605;28;20542;-86
2023/06/29 01:15:59;;;;;;;14.30;7.00;;;21.20;99.90;;;;;;4956271;28;20030;-86
2023/06/29 01:18:27;;;;;;;16.15;6.80;;;21.20;99.90;;;;;;4957977;28;20015;-86
2023/06/29 01:20:53;;;;;;;15.13;6.68;;;21.30;99.90;;;;;;4959450;28;20031;-86
2023/06/29 01:23:25;;;;;;;14.57;6.75;;;21.30;99.90;;;;;;4957355;28;20026;-86
2023/06/29 01:25:51;;;;;;;15.13;6.57;;;21.30;99.90;;;;;;4968382;28;20024;-85
2023/06/29 01:28:17;;;;;;;17.30;6.88;;;21.30;99.90;;;;;;4949263;28;20332;-85
2023/06/29 01:30:49;;;;;;;17.45;7.03;;;21.40;99.90;;;;;;4954803;28;20018;-81
2023/06/29 01:33:21;;;;;;;17.63;6.28;;;21.40;99.90;;;;;;4954463;28;20035;-82
2023/06/29 01:35:48;;;;;;;15.80;7.30;;;21.50;99.90;;;;;;4967790;28;20310;-81
2023/06/29 01:38:43;;;;;;;14.52;6.68;;;21.50;99.90;;;;;;4955575;28;20027;-81
2023/06/29 01:41:12;;;;;;;16.27;6.40;;;21.40;99.90;;;;;;4976453;28;20111;-83
2023/06/29 01:43:37;;;;;;;14.93;6.65;;;21.40;99.90;;;;;;4978412;28;20082;-83
2023/06/29 01:46:04;;;;;;;15.07;6.65;;;21.30;99.90;;;;;;4964690;28;20113;-83
2023/06/29 01:48:31;;;;;;;12.95;6.80;;;21.30;99.90;;;;;;4952770;28;20454;-81
2023/06/29 01:50:56;;;;;;;12.27;7.18;;;21.30;99.90;;;;;;4969669;28;20026;-81
2023/06/29 01:53:22;;;;;;;9.63;6.72;;;21.30;99.90;;;;;;4950069;28;20042;-81
2023/06/29 01:55:48;;;;;;;14.95;7.22;;;21.30;99.90;;;;;;4954514;28;20031;-81
2023/06/29 01:58:13;;;;;;;13.65;6.38;;;21.40;99.90;;;;;;4956330;28;20105;-81
2023/06/29 02:00:39;;;;;;;14.48;7.43;;;21.40;99.90;;;;;;4950892;28;20109;-84
2023/06/29 02:03:05;;;;;;;15.02;6.90;;;21.40;99.90;;;;;;4958330;28;20023;-85
2023/06/29 02:05:30;;;;;;;9.35;6.57;;;21.40;99.90;;;;;;4957849;28;20027;-82
2023/06/29 02:07:56;;;;;;;16.58;7.07;;;21.40;99.90;;;;;;4950337;28;20026;-85
2023/06/29 02:10:21;;;;;;;15.80;8.13;;;21.40;99.90;;;;;;4952741;28;20510;-85
2023/06/29 02:12:47;;;;;;;15.05;7.10;;;21.40;99.90;;;;;;4957522;28;20037;-85
2023/06/29 02:15:13;;;;;;;10.60;6.68;;;21.30;99.90;;;;;;4956053;28;20597;-85
2023/06/29 02:17:41;;;;;;;14.55;6.50;;;21.30;99.90;;;;;;4955948;28;20035;-84
2023/06/29 02:20:09;;;;;;;16.77;7.18;;;21.30;99.90;;;;;;4954429;28;20525;-85
2023/06/29 02:22:35;;;;;;;15.85;7.38;;;21.30;99.90;;;;;;4970531;28;20720;-85
2023/06/29 02:25:00;;;;;;;14.43;7.07;;;21.40;99.90;;;;;;4957014;28;20227;-85
2023/06/29 02:27:26;;;;;;;21.05;7.07;;;21.40;99.90;;;;;;4968919;28;20037;-85
2023/06/29 02:29:54;;;;;;;17.58;6.90;;;21.30;99.90;;;;;;4955839;28;20568;-84
2023/06/29 02:32:20;;;;;;;13.55;6.78;;;21.30;99.90;;;;;;4978125;28;20035;-85
2023/06/29 02:34:46;;;;;;;18.88;7.57;;;21.30;99.90;;;;;;4960713;28;20108;-86
2023/06/29 02:37:11;;;;;;;14.25;7.30;;;21.30;99.90;;;;;;4956191;28;20066;-85
2023/06/29 02:39:37;;;;;;;12.95;7.35;;;21.30;99.90;;;;;;4953776;28;20437;-82
2023/06/29 02:42:02;;;;;;;15.15;7.35;;;21.30;99.90;;;;;;4970544;28;20109;-82
2023/06/29 02:44:28;;;;;;;14.60;7.15;;;21.20;99.90;;;;;;4966586;28;20037;-81
2023/06/29 02:46:54;;;;;;;15.27;7.22;;;21.20;99.90;;;;;;4951149;28;20050;-81
2023/06/29 02:49:19;;;;;;;14.65;7.00;;;21.20;99.90;;;;;;4952810;28;20035;-82
2023/06/29 02:51:45;;;;;;;16.50;7.95;;;21.10;99.90;;;;;;4950034;28;20463;-80
2023/06/29 02:54:10;;;;;;;15.00;6.97;;;21.10;99.90;;;;;;4950203;28;20389;-81
2023/06/29 02:56:36;;;;;;;14.00;7.80;;;21.20;99.90;;;;;;4949560;28;20020;-82
2023/06/29 02:59:02;;;;;;;15.70;8.38;;;21.20;99.90;;;;;;4952544;28;20119;-82
2023/06/29 03:01:27;;;;;;;15.77;7.40;;;21.20;99.90;;;;;;4953298;28;20038;-82
2023/06/29 03:03:55;;;;;;;15.88;7.72;;;21.20;99.90;;;;;;4950502;28;20057;-82
2023/06/29 03:06:21;;;;;;;21.02;7.70;;;21.20;99.90;;;;;;4956407;28;20105;-81
2023/06/29 03:08:48;;;;;;;16.00;7.95;;;21.20;99.90;;;;;;4950695;28;20130;-82
2023/06/29 03:11:14;;;;;;;15.32;7.70;;;21.20;99.90;;;;;;4965888;28;20125;-81
2023/06/29 03:13:42;;;;;;;14.07;7.43;;;21.30;99.90;;;;;;4954440;28;20081;-81
2023/06/29 03:16:09;;;;;;;13.50;7.97;;;21.20;99.90;;;;;;4955168;28;20122;-81
2023/06/29 03:18:34;;;;;;;15.38;8.05;;;21.20;99.90;;;;;;4949941;28;20027;-82
2023/06/29 03:21:01;;;;;;;19.95;8.23;;;21.20;99.90;;;;;;4964930;28;20047;-81
2023/06/29 03:23:28;;;;;;;21.27;9.20;;;21.20;99.90;;;;;;4969218;28;20162;-82
2023/06/29 03:25:53;;;;;;;11.57;7.90;;;21.30;99.90;;;;;;4969055;28;20498;-83
2023/06/29 03:28:19;;;;;;;23.67;8.25;;;21.30;99.90;;;;;;4953358;28;20106;-81
2023/06/29 03:30:44;;;;;;;14.48;7.80;;;21.30;99.90;;;;;;4966316;28;20049;-81
2023/06/29 03:33:10;;;;;;;20.45;8.90;;;21.30;99.90;;;;;;4948390;28;20085;-81
2023/06/29 03:35:36;;;;;;;19.90;8.20;;;21.30;99.90;;;;;;4952312;28;20493;-81
2023/06/29 03:38:07;;;;;;;19.27;8.40;;;21.30;99.90;;;;;;4963721;28;20015;-81
2023/06/29 03:40:32;;;;;;;15.55;8.20;;;21.30;99.90;;;;;;4949651;28;20023;-81
2023/06/29 03:42:58;;;;;;;18.20;9.73;;;21.40;99.90;;;;;;4947707;28;20062;-81
2023/06/29 03:45:24;;;;;;;15.95;8.18;;;21.40;99.90;;;;;;4955156;28;20537;-80
2023/06/29 03:47:52;;;;;;;19.67;8.60;;;21.40;99.90;;;;;;4966788;28;20059;-81
2023/06/29 03:50:17;;;;;;;20.05;8.63;;;21.40;99.90;;;;;;4949380;28;20049;-82
2023/06/29 03:52:43;;;;;;;20.88;8.65;;;21.40;99.90;;;;;;4948403;28;20034;-81
2023/06/29 03:55:09;;;;;;;15.73;8.35;;;21.40;99.90;;;;;;4962021;28;20058;-81
2023/06/29 03:57:35;;;;;;;15.63;8.63;;;21.40;99.90;;;;;;4952637;28;20154;-86
2023/06/29 04:00:04;;;;;;;16.08;8.50;;;21.40;99.90;;;;;;4955413;28;20034;-85
2023/06/29 04:02:29;;;;;;;17.55;8.90;;;21.50;99.90;;;;;;4965082;28;20034;-84
2023/06/29 04:04:55;;;;;;;18.08;9.48;;;21.50;99.90;;;;;;4970823;28;20027;-84
2023/06/29 04:07:20;;;;;;;14.95;8.65;;;21.50;99.90;;;;;;4967851;28;20033;-84
2023/06/29 04:09:46;;;;;;;14.02;8.40;;;21.60;99.90;;;;;;4949886;28;20058;-81
2023/06/29 04:12:12;;;;;;;19.00;8.05;;;21.60;99.90;;;;;;4965184;28;20419;-80
2023/06/29 04:14:37;;;;;;;16.52;8.48;;;21.70;99.90;;;;;;4949797;28;20432;-82
2023/06/29 04:17:03;;;;;;;21.38;9.15;;;21.70;99.90;;;;;;4953672;28;20030;-81
2023/06/29 04:19:29;;;;;;;16.10;8.60;;;21.70;99.90;;;;;;4948011;28;20053;-82
2023/06/29 04:21:54;;;;;;;17.55;8.93;;;21.70;99.90;;;;;;4942836;28;20340;-83
2023/06/29 04:24:20;;;;;;;19.33;8.75;;;21.80;99.90;;;;;;4952316;28;20046;-82
2023/06/29 04:26:46;;;;;;;19.38;8.85;;;21.80;99.90;;;;;;4975046;28;20038;-86
2023/06/29 04:29:12;;;;;;;17.45;8.02;;;21.80;99.90;;;;;;4955309;28;20027;-86
2023/06/29 04:31:37;;;;;;;18.52;8.55;;;21.80;99.90;;;;;;4952806;28;20027;-85
2023/06/29 04:34:03;;;;;;;19.15;8.43;;;21.90;99.90;;;;;;4964891;28;20027;-84
2023/06/29 04:36:29;;;;;;;13.70;8.23;;;21.80;99.90;;;;;;4957742;28;20011;-85
2023/06/29 04:38:55;;;;;;;19.52;9.10;;;21.90;99.90;;;;;;4964908;28;20322;-82
2023/06/29 04:41:30;;;;;;;24.35;8.57;;;21.90;99.90;;;;;;4948587;28;20058;-82
2023/06/29 04:43:57;;;;;;;19.50;8.65;;;21.90;99.90;;;;;;4946118;28;20058;-82
2023/06/29 04:46:25;;;;;;;18.05;9.20;;;21.90;99.90;;;;;;4948611;28;20062;-82
2023/06/29 04:48:51;;;;;;;19.35;8.80;;;21.90;99.90;;;;;;4957364;28;20098;-82
2023/06/29 04:51:17;;;;;;;17.15;8.02;;;22.00;99.90;;;;;;4960784;28;20674;-81
2023/06/29 04:53:43;;;;;;;16.98;8.75;;;22.00;99.90;;;;;;4965838;28;20047;-82
2023/06/29 04:56:09;;;;;;;18.83;8.45;;;22.00;99.90;;;;;;4947918;28;20176;-86
2023/06/29 04:58:34;;;;;;;17.27;8.77;;;22.10;99.90;;;;;;4956312;28;20050;-82
2023/06/29 05:01:00;;;;;;;20.17;8.35;;;22.10;99.90;;;;;;4961332;28;20078;-82
2023/06/29 05:03:26;;;;;;;23.55;9.23;;;22.10;99.90;;;;;;4949729;28;20114;-82
2023/06/29 05:05:52;;;;;;;18.85;9.27;;;22.20;99.90;;;;;;4948863;28;20135;-82
2023/06/29 05:08:18;;;;;;;17.77;9.07;;;22.20;99.90;;;;;;4947779;28;20134;-82
2023/06/29 05:10:44;;;;;;;17.50;8.43;;;22.20;99.90;;;;;;4948043;28;20026;-82
2023/06/29 05:13:09;;;;;;;19.40;9.40;;;22.10;99.90;;;;;;4964775;28;20587;-82
2023/06/29 05:15:35;;;;;;;23.48;8.85;;;22.10;99.90;;;;;;4954671;28;20027;-86
2023/06/29 05:18:01;;;;;;;21.58;9.23;;;22.10;99.90;;;;;;4967787;28;20054;-86
2023/06/29 05:20:27;;;;;;;22.58;9.48;;;22.00;99.90;;;;;;4953114;28;20030;-86
2023/06/29 05:22:53;;;;;;;16.00;8.63;;;22.00;99.90;;;;;;4948923;28;20023;-86
2023/06/29 05:25:18;;;;;;;20.90;8.27;;;22.00;99.90;;;;;;4951416;28;20050;-86
2023/06/29 05:27:44;;;;;;;24.67;7.95;;;22.00;99.90;;;;;;4970614;28;20034;-86
2023/06/29 05:30:10;;;;;;;22.88;8.85;;;22.00;99.90;;;;;;4972184;28;20030;-87
2023/06/29 05:32:37;;;;;;;16.85;8.52;;;22.10;99.90;;;;;;4974539;28;20050;-87
2023/06/29 05:35:03;;;;;;;14.75;7.70;;;22.20;99.90;;;;;;4954782;28;20030;-86
2023/06/29 05:37:34;;;;;;;18.83;8.38;;;22.30;99.90;;;;;;4968314;28;20026;-87
2023/06/29 05:40:00;;;;;;;23.73;8.48;;;22.30;99.90;;;;;;4957513;28;20526;-85
2023/06/29 05:42:26;;;;;;;19.23;7.90;;;22.30;99.90;;;;;;4968525;28;20023;-86
2023/06/29 05:44:55;;;;;;;20.02;8.70;;;22.30;99.90;;;;;;4969587;28;20570;-85
2023/06/29 05:47:20;;;;;;;14.52;8.70;;;22.30;99.90;;;;;;4969408;28;20478;-86
2023/06/29 05:49:46;;;;;;;17.75;8.35;;;22.30;99.90;;;;;;4974069;28;20035;-86
2023/06/29 05:52:13;;;;;;;19.40;8.38;;;22.30;99.90;;;;;;4960080;28;20130;-81
2023/06/29 05:54:38;;;;;;;19.20;8.43;;;22.20;99.90;;;;;;4950802;28;20438;-81
2023/06/29 05:57:04;;;;;;;15.10;7.55;;;22.20;99.90;;;;;;4952204;28;20027;-82
2023/06/29 05:59:30;;;;;;;23.45;9.38;;;22.20;99.90;;;;;;4967802;28;20033;-81
2023/06/29 06:01:56;;;;;;;18.50;8.57;;;22.20;99.90;;;;;;4952455;28;20027;-80
2023/06/29 06:04:21;;;;;;;20.15;9.73;;;22.20;99.90;;;;;;4956714;28;21258;-81
2023/06/29 06:06:47;;;;;;;15.95;8.57;;;22.30;99.90;;;;;;4956195;28;20011;-82
2023/06/29 06:09:13;;;;;;;17.13;9.55;;;22.10;99.90;;;;;;4958586;28;20027;-81
2023/06/29 06:11:38;;;;;;;18.85;9.52;;;22.10;99.90;;;;;;4959268;28;20023;-86
2023/06/29 06:14:04;;;;;;;18.10;9.70;;;22.10;99.90;;;;;;4967732;28;20715;-86
2023/06/29 06:16:29;;;;;;;23.98;9.82;;;22.20;99.90;;;;;;4955757;28;20023;-87
2023/06/29 06:18:57;;;;;;;15.23;9.43;;;22.30;99.90;;;;;;4954342;28;20111;-85
2023/06/29 06:21:26;;;;;;;22.15;9.52;;;22.30;99.90;;;;;;4970181;28;20106;-85
2023/06/29 06:23:53;;;;;;;18.30;9.60;;;22.40;99.90;;;;;;4972685;28;20019;-84
2023/06/29 06:26:21;;;;;;;24.13;10.25;;;22.40;99.90;;;;;;4969849;28;20027;-87
2023/06/29 06:28:47;;;;;;;18.38;10.20;;;22.40;99.90;;;;;;4954766;28;20062;-85
2023/06/29 06:31:12;;;;;;;23.73;10.02;;;22.50;99.90;;;;;;4954905;28;20086;-85
2023/06/29 06:33:39;;;;;;;22.00;10.32;;;22.50;99.90;;;;;;4973619;28;20035;-85
2023/06/29 06:36:06;;;;;;;20.98;10.45;;;22.50;99.90;;;;;;4954564;28;20055;-86
2023/06/29 06:38:31;;;;;;;20.83;10.13;;;22.50;99.90;;;;;;4970048;28;20580;-86
2023/06/29 06:40:57;;;;;;;18.20;10.30;;;22.60;99.90;;;;;;4959084;28;20022;-85
2023/06/29 06:43:23;;;;;;;21.27;10.73;;;22.70;99.90;;;;;;4952180;28;20035;-81
2023/06/29 06:45:51;;;;;;;24.02;10.75;;;22.80;99.90;;;;;;4967684;28;20383;-88
2023/06/29 06:48:17;;;;;;;24.40;11.38;;;22.70;99.90;;;;;;4961319;28;20031;-88
2023/06/29 06:50:42;;;;;;;20.92;10.68;;;22.80;99.90;;;;;;4971135;28;20035;-82
2023/06/29 06:53:08;;;;;;;20.10;10.43;;;22.80;99.90;;;;;;4950370;28;20336;-82
2023/06/29 06:55:34;;;;;;;24.27;11.82;;;22.80;99.90;;;;;;4956154;28;20045;-81
2023/06/29 06:57:59;;;;;;;24.85;11.35;;;22.70;99.90;;;;;;4968262;28;20030;-82
2023/06/29 07:00:26;;;;;;;20.25;11.98;;;22.80;99.90;;;;;;4970317;28;20507;-83
2023/06/29 07:02:52;;;;;;;23.40;11.60;;;22.80;99.90;;;;;;4970692;28;20400;-82
2023/06/29 07:05:20;;;;;;;23.15;12.40;;;22.90;99.90;;;;;;4965617;28;20032;-83
2023/06/29 07:07:46;;;;;;;24.13;12.35;;;22.80;99.90;;;;;;4974179;28;20217;-82
2023/06/29 07:10:12;;;;;;;28.38;12.40;;;22.90;99.90;;;;;;4949642;28;20034;-83
2023/06/29 07:12:38;;;;;;;33.50;12.15;;;22.90;99.90;;;;;;4956070;28;20046;-81
2023/06/29 07:15:05;;;;;;;20.05;12.23;;;22.90;99.90;;;;;;4968881;28;20031;-83
2023/06/29 07:17:30;;;;;;;25.55;12.95;;;22.90;99.90;;;;;;4968925;28;20042;-85
2023/06/29 07:19:56;;;;;;;25.58;12.10;;;22.80;99.90;;;;;;4966402;28;20050;-88
2023/06/29 07:22:22;;;;;;;24.85;12.45;;;22.80;99.90;;;;;;4975795;28;20519;-86
2023/06/29 07:24:47;;;;;;;27.77;13.30;;;22.70;99.90;;;;;;4975620;28;20082;-83
2023/06/29 07:27:13;;;;;;;27.40;13.10;;;22.60;99.90;;;;;;4968385;28;20208;-83
2023/06/29 07:29:42;;;;;;;23.30;13.25;;;22.50;99.90;;;;;;4949917;28;20029;-83
2023/06/29 07:32:08;;;;;;;32.00;12.88;;;22.60;99.90;;;;;;4971714;28;20500;-87
2023/06/29 07:34:34;;;;;;;30.77;13.52;;;22.50;99.90;;;;;;4967907;28;20027;-84
2023/06/29 07:37:00;;;;;;;28.30;13.63;;;22.70;99.90;;;;;;4952086;28;20045;-82
2023/06/29 07:39:27;;;;;;;30.50;14.32;;;22.70;99.90;;;;;;4948282;28;20513;-82
2023/06/29 07:41:53;;;;;;;29.98;13.77;;;22.80;99.90;;;;;;4966622;28;20523;-83
2023/06/29 07:44:20;;;;;;;26.55;13.95;;;22.80;99.90;;;;;;4952707;28;20106;-84
2023/06/29 07:46:46;;;;;;;25.58;13.95;;;22.70;99.90;;;;;;4965346;28;20018;-84
2023/06/29 07:49:11;;;;;;;28.73;14.40;;;22.80;99.90;;;;;;4953943;28;20042;-83
2023/06/29 07:51:37;;;;;;;25.92;14.13;;;22.90;99.90;;;;;;4951746;28;20434;-82
2023/06/29 07:54:04;;;;;;;23.75;13.98;;;22.90;99.90;;;;;;4952517;28;20041;-83
2023/06/29 07:56:32;;;;;;;25.33;13.73;;;22.90;99.90;;;;;;4951547;28;20118;-82
2023/06/29 07:58:59;;;;;;;32.08;14.88;;;22.90;99.90;;;;;;4964629;28;20019;-82
2023/06/29 08:01:28;;;;;;;28.67;15.07;;;23.00;99.90;;;;;;4946985;28;20035;-83
2023/06/29 08:03:53;;;;;;;31.88;15.20;;;23.10;99.90;;;;;;4968456;28;20158;-83
2023/06/29 08:06:19;;;;;;;31.95;15.48;;;23.10;99.90;;;;;;4968936;28;20293;-83
2023/06/29 08:08:47;;;;;;;29.85;16.20;;;23.10;99.90;;;;;;4968503;28;20026;-83
2023/06/29 08:11:16;;;;;;;30.38;15.80;;;23.20;99.90;;;;;;4951205;28;20350;-81
2023/06/29 08:13:41;;;;;;;26.20;15.90;;;23.30;99.90;;;;;;4971151;28;20484;-82
2023/06/29 08:16:10;;;;;;;33.55;16.27;;;23.30;99.90;;;;;;4968182;28;20041;-82
2023/06/29 08:18:35;;;;;;;33.08;16.73;;;23.30;99.90;;;;;;4965910;28;20348;-82
2023/06/29 08:21:01;;;;;;;31.77;17.70;;;23.30;99.90;;;;;;4946751;28;20038;-83
2023/06/29 08:23:27;;;;;;;32.13;16.17;;;23.30;99.90;;;;;;4954642;28;20070;-84
2023/06/29 08:25:53;;;;;;;31.80;16.90;;;23.40;99.90;;;;;;4968429;28;20145;-82
2023/06/29 08:28:18;;;;;;;32.25;17.83;;;23.50;99.90;;;;;;4967304;28;20039;-86
2023/06/29 08:30:44;;;;;;;32.78;17.33;;;23.40;99.90;;;;;;4969150;28;20118;-86
2023/06/29 08:33:09;;;;;;;34.20;18.13;;;23.50;99.90;;;;;;4953603;28;20165;-87
2023/06/29 08:35:35;;;;;;;35.60;17.58;;;23.60;99.90;;;;;;4957634;28;20501;-86
2023/06/29 08:38:03;;;;;;;38.00;17.73;;;23.60;99.90;;;;;;4949716;28;20035;-85
2023/06/29 08:40:34;;;;;;;35.53;17.55;;;23.70;99.90;;;;;;4966653;28;20199;-84
2023/06/29 08:43:00;;;;;;;33.08;17.65;;;23.70;99.90;;;;;;4950486;28;20034;-82
2023/06/29 08:45:25;;;;;;;33.88;16.73;;;23.60;99.90;;;;;;4950043;28;20035;-82
2023/06/29 08:47:53;;;;;;;36.92;20.17;;;23.60;99.90;;;;;;4950359;28;20046;-84
2023/06/29 08:50:24;;;;;;;34.53;18.90;;;23.70;99.90;;;;;;4951685;28;20035;-82
2023/06/29 08:52:51;;;;;;;41.20;19.13;;;23.70;99.90;;;;;;4953643;28;20035;-84
2023/06/29 08:55:19;;;;;;;36.05;17.98;;;23.70;99.90;;;;;;4957102;28;20584;-86
2023/06/29 08:57:48;;;;;;;35.90;18.77;;;23.80;99.90;;;;;;4966851;28;20057;-83
2023/06/29 09:00:15;;;;;;;39.10;18.42;;;24.00;99.90;;;;;;4966699;28;20059;-84
2023/06/29 09:02:41;;;;;;;40.30;20.13;;;24.30;99.90;;;;;;4949902;28;20038;-82
2023/06/29 09:05:08;;;;;;;39.50;19.45;;;24.30;99.90;;;;;;4951694;28;20035;-82
2023/06/29 09:07:37;;;;;;;34.65;19.77;;;24.50;99.90;;;;;;4956205;28;20023;-85
2023/06/29 09:10:03;;;;;;;43.40;20.10;;;24.50;99.90;;;;;;4974324;28;20628;-83
2023/06/29 09:12:28;;;;;;;39.53;20.05;;;24.60;99.90;;;;;;4958933;28;20062;-83
2023/06/29 09:14:57;;;;;;;37.33;20.42;;;24.60;99.90;;;;;;4953162;28;20282;-84
2023/06/29 09:17:22;;;;;;;34.45;20.02;;;24.70;99.90;;;;;;4956406;28;20027;-81
2023/06/29 09:19:56;;;;;;;43.97;21.05;;;24.80;99.90;;;;;;4958349;28;20034;-81
2023/06/29 09:22:25;;;;;;;36.10;21.15;;;24.80;99.90;;;;;;4970448;28;20498;-82
2023/06/29 09:24:56;;;;;;;36.60;20.77;;;24.90;99.90;;;;;;4954578;28;20027;-82
2023/06/29 09:27:22;;;;;;;42.28;22.70;;;25.30;99.90;;;;;;4951951;28;20722;-82
2023/06/29 09:29:54;;;;;;;40.33;21.20;;;25.50;99.90;;;;;;4950456;28;20031;-81
2023/06/29 09:32:20;;;;;;;41.43;21.10;;;25.80;99.90;;;;;;4964601;28;20082;-82
2023/06/29 09:34:47;;;;;;;39.47;20.70;;;26.20;99.90;;;;;;4953174;28;20291;-82
2023/06/29 09:37:17;;;;;;;40.90;21.52;;;26.30;99.90;;;;;;4972439;28;20024;-83
2023/06/29 09:40:11;;;;;;;41.53;22.23;;;26.40;99.90;;;;;;4976442;28;20101;-82
2023/06/29 09:42:37;;;;;;;38.20;20.55;;;26.50;99.90;;;;;;4956037;28;20310;-82
2023/06/29 09:45:14;;;;;;;37.60;20.85;;;26.40;99.90;;;;;;4957663;28;20102;-84
2023/06/29 09:47:49;;;;;;;38.58;20.10;;;26.70;99.90;;;;;;4958696;28;20023;-84
2023/06/29 09:50:20;;;;;;;40.35;21.35;;;27.00;99.90;;;;;;4969942;28;20388;-82
2023/06/29 09:52:47;;;;;;;36.78;21.00;;;27.30;99.90;;;;;;4969180;28;20045;-80
2023/06/29 09:55:17;;;;;;;40.78;21.35;;;27.20;99.90;;;;;;4956302;28;20046;-82
2023/06/29 09:57:45;;;;;;;35.83;20.58;;;27.80;99.90;;;;;;4963063;28;20165;-82
2023/06/29 10:00:13;;;;;;;30.27;18.38;;;28.20;99.90;;;;;;4968461;28;20033;-80
2023/06/29 10:02:42;;;;;;;34.67;17.42;;;28.60;99.90;;;;;;4953197;28;20026;-80
2023/06/29 10:05:11;;;;;;;24.30;15.00;;;28.40;99.90;;;;;;4952341;28;20023;-81
2023/06/29 10:07:38;;;;;;;22.05;14.38;;;27.80;99.80;;;;;;4966906;28;20109;-81
2023/06/29 10:10:05;;;;;;;25.33;14.52;;;27.70;99.50;;;;;;4955079;28;20030;-80
2023/06/29 10:12:32;;;;;;;26.77;15.13;;;27.70;99.10;;;;;;4968574;28;20093;-80
2023/06/29 10:15:06;;;;;;;23.42;13.57;;;27.90;99.30;;;;;;4955720;28;20060;-81
2023/06/29 10:17:46;;;;;;;25.05;15.20;;;27.80;98.40;;;;;;4970920;28;20545;-79
2023/06/29 10:20:14;;;;;;;24.10;15.10;;;27.40;97.90;;;;;;4973800;28;20080;-81
2023/06/29 10:22:41;;;;;;;24.17;15.70;;;27.60;98.30;;;;;;4951982;28;20142;-82
2023/06/29 10:25:11;;;;;;;26.83;14.00;;;27.60;98.50;;;;;;4969932;28;20031;-82
2023/06/29 10:27:39;;;;;;;24.85;14.48;;;27.70;98.90;;;;;;4965648;28;20050;-81
2023/06/29 10:30:05;;;;;;;26.33;16.02;;;27.60;97.70;;;;;;4954935;28;20099;-81
2023/06/29 10:32:31;;;;;;;27.25;15.05;;;27.40;98.10;;;;;;4953270;28;20041;-81
2023/06/29 10:35:02;;;;;;;26.33;14.35;;;27.60;98.20;;;;;;4970353;28;20031;-81
2023/06/29 10:37:33;;;;;;;22.90;14.70;;;27.90;97.90;;;;;;4965861;28;20402;-82
2023/06/29 10:39:59;;;;;;;168.23;91.97;;;28.00;97.40;;;;;;4947642;28;20035;-80
2023/06/29 10:42:25;;;;;;;25.95;14.30;;;28.10;97.30;;;;;;4951837;28;20015;-82
2023/06/29 10:44:50;;;;;;;25.20;13.82;;;28.00;96.60;;;;;;4964663;28;20049;-82
2023/06/29 10:47:28;;;;;;;23.52;14.40;;;27.70;96.50;;;;;;4954884;28;20239;-81
2023/06/29 10:50:10;;;;;;;21.77;13.95;;;27.60;97.00;;;;;;4956930;28;20045;-84
2023/06/29 10:52:40;;;;;;;23.13;14.63;;;27.40;96.80;;;;;;4954188;28;20041;-82
2023/06/29 10:55:19;;;;;;;21.33;14.27;;;27.30;97.30;;;;;;4955336;28;20340;-81
2023/06/29 10:57:51;;;;;;;22.88;13.88;;;27.40;97.20;;;;;;4956969;28;20133;-80
2023/06/29 11:00:18;;;;;;;22.65;14.07;;;27.40;97.00;;;;;;4965463;28;20037;-84
2023/06/29 11:02:46;;;;;;;24.05;14.77;;;27.40;96.90;;;;;;4959545;28;20058;-84
2023/06/29 11:05:19;;;;;;;22.00;13.35;;;27.60;97.30;;;;;;4955238;28;20031;-83
2023/06/29 11:07:48;;;;;;;21.40;12.48;;;27.60;96.60;;;;;;4953806;28;20507;-83
2023/06/29 11:10:14;;;;;;;21.10;13.48;;;27.80;96.20;;;;;;4956053;28;20062;-83
2023/06/29 11:12:40;;;;;;;18.02;12.80;;;27.80;96.20;;;;;;4970092;28;20495;-83
2023/06/29 11:15:17;;;;;;;22.85;13.50;;;28.00;96.70;;;;;;4959001;28;20031;-81
2023/06/29 11:17:44;;;;;;;20.48;12.50;;;28.10;95.60;;;;;;4948760;28;20034;-81
2023/06/29 11:20:13;;;;;;;20.08;12.80;;;28.30;95.40;;;;;;4954181;28;20368;-81
2023/06/29 11:22:41;;;;;;;21.67;13.00;;;28.50;95.00;;;;;;4953332;28;20399;-81
2023/06/29 11:25:08;;;;;;;17.50;12.60;;;28.70;94.10;;;;;;4959015;28;20365;-82
2023/06/29 11:27:33;;;;;;;21.80;13.18;;;28.80;94.10;;;;;;4965363;28;20075;-82
2023/06/29 11:30:00;;;;;;;16.42;11.73;;;28.90;93.70;;;;;;4946617;28;20078;-81
2023/06/29 11:32:26;;;;;;;21.02;12.38;;;29.20;93.50;;;;;;4952556;28;20046;-81
2023/06/29 11:35:10;;;;;;;18.58;11.75;;;29.30;93.40;;;;;;4959657;28;20114;-81
2023/06/29 11:37:38;;;;;;;19.95;12.63;;;29.60;91.20;;;;;;4956120;28;20043;-82
2023/06/29 11:40:07;;;;;;;17.70;12.15;;;29.40;91.00;;;;;;4971935;28;20030;-82
2023/06/29 11:42:36;;;;;;;18.65;11.30;;;29.50;90.70;;;;;;4953566;28;20042;-81
2023/06/29 11:45:04;;;;;;;18.25;10.82;;;29.40;90.20;;;;;;4955629;28;20497;-81
2023/06/29 11:47:30;;;;;;;15.80;10.95;;;29.10;89.90;;;;;;4956247;28;20366;-81
2023/06/29 11:50:00;;;;;;;11.77;9.10;;;28.90;90.70;;;;;;4954668;28;20513;-81
2023/06/29 11:52:31;;;;;;;14.05;9.93;;;29.00;90.10;;;;;;4953695;28;20737;-81
2023/06/29 11:55:04;;;;;;;13.05;9.57;;;29.30;89.00;;;;;;4963957;28;20027;-81
2023/06/29 11:57:32;;;;;;;17.92;11.45;;;29.50;88.30;;;;;;4975121;28;20108;-81
2023/06/29 11:59:58;;;;;;;21.65;11.70;;;29.00;88.60;;;;;;4967406;28;20030;-80
2023/06/29 12:02:24;;;;;;;20.38;12.48;;;28.60;89.80;;;;;;4958157;28;20031;-84
2023/06/29 12:04:56;;;;;;;16.25;11.38;;;28.40;89.20;;;;;;4956317;28;20624;-84
2023/06/29 12:07:35;;;;;;;;;;;28.40;90.30;;;;;;4958634;28;20471;-82
2023/06/29 12:10:02;;;;;;;22.48;13.77;;;28.20;90.30;;;;;;4968498;28;20750;-81
2023/06/29 12:12:28;;;;;;;23.15;13.93;;;28.00;91.30;;;;;;4955381;28;20037;-81
2023/06/29 12:14:54;;;;;;;25.23;15.77;;;28.10;90.90;;;;;;4955796;28;20685;-81
2023/06/29 12:17:20;;;;;;;22.50;14.80;;;28.30;91.20;;;;;;4957955;28;20031;-80
2023/06/29 12:19:51;;;;;;;23.80;14.90;;;28.40;90.80;;;;;;4958088;28;20149;-81
2023/06/29 12:22:16;;;;;;;23.85;13.88;;;28.30;90.30;;;;;;4958864;28;20031;-81
2023/06/29 12:24:49;;;;;;;25.95;13.68;;;28.30;88.80;;;;;;4952927;28;20023;-81
2023/06/29 12:27:15;;;;;;;21.25;14.00;;;28.10;89.30;;;;;;4952634;28;20031;-81
2023/06/29 12:29:40;;;;;;;19.27;14.18;;;28.00;90.10;;;;;;4955623;28;20534;-81
2023/06/29 12:32:06;;;;;;;22.73;15.70;;;27.90;90.00;;;;;;4958074;28;20035;-80